sensor_id;sensor_type;location;lat;lon;timestamp;P1;durP1;ratioP1;P2;durP2;ratioP2
36817;SDS011;22761;51.542;16.450;2023-04-25T00:00:26;1.40;;;0.30;;
36817;SDS011;22761;51.542;16.450;2023-04-25T00:03:14;3.10;;;0.50;;
36817;SDS011;22761;51.542;16.450;2023-04-25T00:05:42;1.00;;;0.40;;
36817;SDS011;22761;51.542;16.450;2023-04-25T00:08:11;1.50;;;0.40;;
36817;SDS011;22761;51.542;16.450;2023-04-25T00:10:40;1.50;;;0.40;;
36817;SDS011;22761;51.542;16.450;2023-04-25T00:13:08;2.30;;;0.30;;
36817;SDS011;22761;51.542;16.450;2023-04-25T00:15:37;0.70;;;0.40;;
36817;SDS011;22761;51.542;16.450;2023-04-25T00:18:05;1.90;;;0.50;;
36817;SDS011;22761;51.542;16.450;2023-04-25T00:20:35;1.20;;;0.50;;
36817;SDS011;22761;51.542;16.450;2023-04-25T00:23:03;1.00;;;0.50;;
36817;SDS011;22761;51.542;16.450;2023-04-25T00:25:32;4.00;;;0.40;;
36817;SDS011;22761;51.542;16.450;2023-04-25T00:28:01;0.70;;;0.40;;
36817;SDS011;22761;51.542;16.450;2023-04-25T00:30:29;0.50;;;0.30;;
36817;SDS011;22761;51.542;16.450;2023-04-25T00:32:57;2.20;;;0.40;;
36817;SDS011;22761;51.542;16.450;2023-04-25T00:35:26;2.10;;;0.30;;
36817;SDS011;22761;51.542;16.450;2023-04-25T00:37:54;0.60;;;0.30;;
36817;SDS011;22761;51.542;16.450;2023-04-25T00:40:23;0.90;;;0.40;;
36817;SDS011;22761;51.542;16.450;2023-04-25T00:42:51;1.90;;;0.50;;
36817;SDS011;22761;51.542;16.450;2023-04-25T00:45:20;0.70;;;0.30;;
36817;SDS011;22761;51.542;16.450;2023-04-25T00:47:48;2.70;;;0.50;;
36817;SDS011;22761;51.542;16.450;2023-04-25T00:50:17;3.70;;;0.50;;
36817;SDS011;22761;51.542;16.450;2023-04-25T00:52:45;0.40;;;0.30;;
36817;SDS011;22761;51.542;16.450;2023-04-25T00:55:14;0.30;;;0.30;;
36817;SDS011;22761;51.542;16.450;2023-04-25T00:57:43;1.20;;;0.40;;
36817;SDS011;22761;51.542;16.450;2023-04-25T01:00:12;0.50;;;0.30;;
36817;SDS011;22761;51.542;16.450;2023-04-25T01:02:42;1.50;;;0.60;;
36817;SDS011;22761;51.542;16.450;2023-04-25T01:05:12;2.40;;;0.40;;
36817;SDS011;22761;51.542;16.450;2023-04-25T01:07:41;3.10;;;0.60;;
36817;SDS011;22761;51.542;16.450;2023-04-25T01:10:09;1.50;;;0.60;;
36817;SDS011;22761;51.542;16.450;2023-04-25T01:12:37;1.30;;;0.70;;
36817;SDS011;22761;51.542;16.450;2023-04-25T01:15:06;0.80;;;0.60;;
36817;SDS011;22761;51.542;16.450;2023-04-25T01:17:34;1.80;;;0.50;;
36817;SDS011;22761;51.542;16.450;2023-04-25T01:20:04;1.40;;;0.60;;
36817;SDS011;22761;51.542;16.450;2023-04-25T01:22:33;0.80;;;0.70;;
36817;SDS011;22761;51.542;16.450;2023-04-25T01:25:02;1.00;;;0.60;;
36817;SDS011;22761;51.542;16.450;2023-04-25T01:27:31;1.90;;;0.90;;
36817;SDS011;22761;51.542;16.450;2023-04-25T01:29:59;0.90;;;0.50;;
36817;SDS011;22761;51.542;16.450;2023-04-25T01:32:28;1.00;;;0.50;;
36817;SDS011;22761;51.542;16.450;2023-04-25T01:34:57;0.70;;;0.40;;
36817;SDS011;22761;51.542;16.450;2023-04-25T01:37:26;1.50;;;0.60;;
36817;SDS011;22761;51.542;16.450;2023-04-25T01:39:54;0.50;;;0.40;;
36817;SDS011;22761;51.542;16.450;2023-04-25T01:42:23;1.10;;;0.70;;
36817;SDS011;22761;51.542;16.450;2023-04-25T01:44:51;1.10;;;0.70;;
36817;SDS011;22761;51.542;16.450;2023-04-25T01:47:19;0.90;;;0.60;;
36817;SDS011;22761;51.542;16.450;2023-04-25T01:49:48;2.40;;;0.70;;
36817;SDS011;22761;51.542;16.450;2023-04-25T01:52:16;1.10;;;0.70;;
36817;SDS011;22761;51.542;16.450;2023-04-25T01:54:44;2.00;;;0.80;;
36817;SDS011;22761;51.542;16.450;2023-04-25T01:57:14;0.80;;;0.70;;
36817;SDS011;22761;51.542;16.450;2023-04-25T01:59:43;2.00;;;0.90;;
36817;SDS011;22761;51.542;16.450;2023-04-25T02:02:35;1.70;;;0.90;;
36817;SDS011;22761;51.542;16.450;2023-04-25T02:05:05;0.90;;;0.70;;
36817;SDS011;22761;51.542;16.450;2023-04-25T02:07:36;0.90;;;0.70;;
36817;SDS011;22761;51.542;16.450;2023-04-25T02:10:05;2.10;;;0.90;;
36817;SDS011;22761;51.542;16.450;2023-04-25T02:12:38;1.10;;;0.90;;
36817;SDS011;22761;51.542;16.450;2023-04-25T02:15:22;2.30;;;1.00;;
36817;SDS011;22761;51.542;16.450;2023-04-25T02:17:54;1.50;;;0.90;;
36817;SDS011;22761;51.542;16.450;2023-04-25T02:20:23;2.70;;;1.50;;
36817;SDS011;22761;51.542;16.450;2023-04-25T02:22:52;1.60;;;1.50;;
36817;SDS011;22761;51.542;16.450;2023-04-25T02:25:21;2.40;;;1.50;;
36817;SDS011;22761;51.542;16.450;2023-04-25T02:27:49;2.40;;;1.60;;
36817;SDS011;22761;51.542;16.450;2023-04-25T02:30:19;4.40;;;1.80;;
36817;SDS011;22761;51.542;16.450;2023-04-25T02:32:47;3.40;;;1.60;;
36817;SDS011;22761;51.542;16.450;2023-04-25T02:35:15;2.90;;;1.80;;
36817;SDS011;22761;51.542;16.450;2023-04-25T02:37:43;2.80;;;1.70;;
36817;SDS011;22761;51.542;16.450;2023-04-25T02:40:13;1.90;;;1.70;;
36817;SDS011;22761;51.542;16.450;2023-04-25T02:42:42;3.90;;;1.90;;
36817;SDS011;22761;51.542;16.450;2023-04-25T02:45:10;2.60;;;1.80;;
36817;SDS011;22761;51.542;16.450;2023-04-25T02:47:39;3.50;;;1.90;;
36817;SDS011;22761;51.542;16.450;2023-04-25T02:50:07;4.40;;;2.30;;
36817;SDS011;22761;51.542;16.450;2023-04-25T02:52:36;7.50;;;2.50;;
36817;SDS011;22761;51.542;16.450;2023-04-25T02:55:12;2.80;;;2.20;;
36817;SDS011;22761;51.542;16.450;2023-04-25T02:57:41;3.40;;;2.40;;
36817;SDS011;22761;51.542;16.450;2023-04-25T03:00:11;4.40;;;2.50;;
36817;SDS011;22761;51.542;16.450;2023-04-25T03:05:10;4.60;;;2.40;;
36817;SDS011;22761;51.542;16.450;2023-04-25T03:07:39;3.90;;;2.70;;
36817;SDS011;22761;51.542;16.450;2023-04-25T03:10:10;3.90;;;2.30;;
36817;SDS011;22761;51.542;16.450;2023-04-25T03:12:38;2.60;;;2.10;;
36817;SDS011;22761;51.542;16.450;2023-04-25T03:15:07;3.70;;;2.30;;
36817;SDS011;22761;51.542;16.450;2023-04-25T03:17:36;3.90;;;2.40;;
36817;SDS011;22761;51.542;16.450;2023-04-25T03:20:05;3.10;;;2.40;;
36817;SDS011;22761;51.542;16.450;2023-04-25T03:22:37;5.00;;;2.50;;
36817;SDS011;22761;51.542;16.450;2023-04-25T03:25:05;4.50;;;2.70;;
36817;SDS011;22761;51.542;16.450;2023-04-25T03:27:35;5.60;;;2.70;;
36817;SDS011;22761;51.542;16.450;2023-04-25T03:30:03;2.90;;;2.30;;
36817;SDS011;22761;51.542;16.450;2023-04-25T03:32:32;3.90;;;2.80;;
36817;SDS011;22761;51.542;16.450;2023-04-25T03:35:01;4.50;;;2.50;;
36817;SDS011;22761;51.542;16.450;2023-04-25T03:37:31;3.50;;;2.50;;
36817;SDS011;22761;51.542;16.450;2023-04-25T03:39:59;5.00;;;2.60;;
36817;SDS011;22761;51.542;16.450;2023-04-25T03:42:40;3.30;;;2.40;;
36817;SDS011;22761;51.542;16.450;2023-04-25T03:45:11;3.60;;;2.00;;
36817;SDS011;22761;51.542;16.450;2023-04-25T03:47:39;3.30;;;2.40;;
36817;SDS011;22761;51.542;16.450;2023-04-25T03:50:08;4.80;;;2.70;;
36817;SDS011;22761;51.542;16.450;2023-04-25T03:52:37;4.50;;;2.90;;
36817;SDS011;22761;51.542;16.450;2023-04-25T03:55:05;3.60;;;2.40;;
36817;SDS011;22761;51.542;16.450;2023-04-25T03:57:34;5.10;;;2.70;;
36817;SDS011;22761;51.542;16.450;2023-04-25T04:00:02;4.00;;;2.70;;
36817;SDS011;22761;51.542;16.450;2023-04-25T04:02:40;5.60;;;2.90;;
36817;SDS011;22761;51.542;16.450;2023-04-25T04:05:12;5.20;;;2.80;;
36817;SDS011;22761;51.542;16.450;2023-04-25T04:07:47;4.90;;;3.20;;
36817;SDS011;22761;51.542;16.450;2023-04-25T04:10:17;5.80;;;3.40;;
36817;SDS011;22761;51.542;16.450;2023-04-25T04:12:45;3.70;;;2.80;;
36817;SDS011;22761;51.542;16.450;2023-04-25T04:15:13;4.10;;;3.00;;
36817;SDS011;22761;51.542;16.450;2023-04-25T04:17:44;6.60;;;3.00;;
36817;SDS011;22761;51.542;16.450;2023-04-25T04:20:13;3.80;;;3.10;;
36817;SDS011;22761;51.542;16.450;2023-04-25T04:22:41;4.00;;;3.20;;
36817;SDS011;22761;51.542;16.450;2023-04-25T04:28:04;6.20;;;3.60;;
36817;SDS011;22761;51.542;16.450;2023-04-25T04:30:54;7.10;;;3.20;;
36817;SDS011;22761;51.542;16.450;2023-04-25T04:33:23;5.30;;;3.40;;
36817;SDS011;22761;51.542;16.450;2023-04-25T04:35:57;5.90;;;3.30;;
36817;SDS011;22761;51.542;16.450;2023-04-25T04:38:25;5.50;;;3.10;;
36817;SDS011;22761;51.542;16.450;2023-04-25T04:40:57;3.50;;;2.90;;
36817;SDS011;22761;51.542;16.450;2023-04-25T04:43:33;6.10;;;3.20;;
36817;SDS011;22761;51.542;16.450;2023-04-25T04:46:06;4.50;;;3.20;;
36817;SDS011;22761;51.542;16.450;2023-04-25T04:49:00;5.20;;;3.10;;
36817;SDS011;22761;51.542;16.450;2023-04-25T04:51:58;4.60;;;2.80;;
36817;SDS011;22761;51.542;16.450;2023-04-25T04:55:03;4.70;;;3.10;;
36817;SDS011;22761;51.542;16.450;2023-04-25T04:57:56;3.30;;;2.40;;
36817;SDS011;22761;51.542;16.450;2023-04-25T05:00:35;5.40;;;3.10;;
36817;SDS011;22761;51.542;16.450;2023-04-25T05:03:32;4.80;;;2.70;;
36817;SDS011;22761;51.542;16.450;2023-04-25T05:06:19;7.00;;;3.00;;
36817;SDS011;22761;51.542;16.450;2023-04-25T05:09:14;6.20;;;2.70;;
36817;SDS011;22761;51.542;16.450;2023-04-25T05:12:06;4.50;;;2.80;;
36817;SDS011;22761;51.542;16.450;2023-04-25T05:15:07;5.50;;;2.60;;
36817;SDS011;22761;51.542;16.450;2023-04-25T05:17:55;4.00;;;2.80;;
36817;SDS011;22761;51.542;16.450;2023-04-25T05:20:23;4.30;;;2.80;;
36817;SDS011;22761;51.542;16.450;2023-04-25T05:23:10;4.50;;;2.90;;
36817;SDS011;22761;51.542;16.450;2023-04-25T05:25:52;6.40;;;3.20;;
36817;SDS011;22761;51.542;16.450;2023-04-25T05:28:31;5.30;;;3.10;;
36817;SDS011;22761;51.542;16.450;2023-04-25T05:31:11;5.20;;;3.20;;
36817;SDS011;22761;51.542;16.450;2023-04-25T05:33:54;5.10;;;3.50;;
36817;SDS011;22761;51.542;16.450;2023-04-25T05:36:25;5.70;;;3.80;;
36817;SDS011;22761;51.542;16.450;2023-04-25T05:38:54;6.80;;;3.40;;
36817;SDS011;22761;51.542;16.450;2023-04-25T05:41:52;6.30;;;3.60;;
36817;SDS011;22761;51.542;16.450;2023-04-25T05:44:49;6.30;;;3.50;;
36817;SDS011;22761;51.542;16.450;2023-04-25T05:47:38;5.50;;;3.30;;
36817;SDS011;22761;51.542;16.450;2023-04-25T05:50:11;4.40;;;3.10;;
36817;SDS011;22761;51.542;16.450;2023-04-25T05:52:48;9.50;;;4.10;;
36817;SDS011;22761;51.542;16.450;2023-04-25T05:55:30;7.20;;;3.90;;
36817;SDS011;22761;51.542;16.450;2023-04-25T05:58:00;4.90;;;3.30;;
36817;SDS011;22761;51.542;16.450;2023-04-25T06:00:28;4.10;;;3.20;;
36817;SDS011;22761;51.542;16.450;2023-04-25T06:02:57;5.70;;;3.10;;
36817;SDS011;22761;51.542;16.450;2023-04-25T06:05:26;7.10;;;3.50;;
36817;SDS011;22761;51.542;16.450;2023-04-25T06:07:54;7.20;;;3.30;;
36817;SDS011;22761;51.542;16.450;2023-04-25T06:10:22;5.60;;;3.00;;
36817;SDS011;22761;51.542;16.450;2023-04-25T06:12:50;5.80;;;2.60;;
36817;SDS011;22761;51.542;16.450;2023-04-25T06:15:19;4.50;;;2.90;;
36817;SDS011;22761;51.542;16.450;2023-04-25T06:17:50;6.10;;;2.70;;
36817;SDS011;22761;51.542;16.450;2023-04-25T06:20:18;4.40;;;2.70;;
36817;SDS011;22761;51.542;16.450;2023-04-25T06:22:51;5.60;;;2.90;;
36817;SDS011;22761;51.542;16.450;2023-04-25T06:25:23;5.40;;;3.60;;
36817;SDS011;22761;51.542;16.450;2023-04-25T06:27:51;4.80;;;3.30;;
36817;SDS011;22761;51.542;16.450;2023-04-25T06:30:20;6.30;;;2.90;;
36817;SDS011;22761;51.542;16.450;2023-04-25T06:32:52;6.00;;;3.60;;
36817;SDS011;22761;51.542;16.450;2023-04-25T06:35:21;5.10;;;2.80;;
36817;SDS011;22761;51.542;16.450;2023-04-25T06:37:50;4.50;;;2.80;;
36817;SDS011;22761;51.542;16.450;2023-04-25T06:40:21;5.70;;;3.20;;
36817;SDS011;22761;51.542;16.450;2023-04-25T06:42:49;4.80;;;3.20;;
36817;SDS011;22761;51.542;16.450;2023-04-25T06:45:37;6.10;;;3.10;;
36817;SDS011;22761;51.542;16.450;2023-04-25T06:48:09;5.70;;;2.80;;
36817;SDS011;22761;51.542;16.450;2023-04-25T06:50:37;4.60;;;2.40;;
36817;SDS011;22761;51.542;16.450;2023-04-25T06:53:05;6.50;;;2.90;;
36817;SDS011;22761;51.542;16.450;2023-04-25T06:55:33;6.20;;;2.60;;
36817;SDS011;22761;51.542;16.450;2023-04-25T06:58:21;5.40;;;2.80;;
36817;SDS011;22761;51.542;16.450;2023-04-25T07:01:09;4.80;;;2.50;;
36817;SDS011;22761;51.542;16.450;2023-04-25T07:03:38;5.80;;;2.30;;
36817;SDS011;22761;51.542;16.450;2023-04-25T07:06:11;6.60;;;2.20;;
36817;SDS011;22761;51.542;16.450;2023-04-25T07:08:39;5.80;;;2.50;;
36817;SDS011;22761;51.542;16.450;2023-04-25T07:11:08;8.00;;;2.20;;
36817;SDS011;22761;51.542;16.450;2023-04-25T07:13:36;5.40;;;2.50;;
36817;SDS011;22761;51.542;16.450;2023-04-25T07:16:05;7.40;;;3.00;;
36817;SDS011;22761;51.542;16.450;2023-04-25T07:18:34;7.80;;;2.80;;
36817;SDS011;22761;51.542;16.450;2023-04-25T07:21:03;8.30;;;2.60;;
36817;SDS011;22761;51.542;16.450;2023-04-25T07:23:32;6.00;;;3.00;;
36817;SDS011;22761;51.542;16.450;2023-04-25T07:26:02;5.80;;;2.60;;
36817;SDS011;22761;51.542;16.450;2023-04-25T07:28:30;6.50;;;2.80;;
36817;SDS011;22761;51.542;16.450;2023-04-25T07:30:59;7.10;;;2.70;;
36817;SDS011;22761;51.542;16.450;2023-04-25T07:33:27;4.30;;;2.60;;
36817;SDS011;22761;51.542;16.450;2023-04-25T07:35:55;5.10;;;2.50;;
36817;SDS011;22761;51.542;16.450;2023-04-25T07:38:23;4.70;;;2.70;;
36817;SDS011;22761;51.542;16.450;2023-04-25T07:40:52;5.90;;;3.70;;
36817;SDS011;22761;51.542;16.450;2023-04-25T07:43:22;9.00;;;2.90;;
36817;SDS011;22761;51.542;16.450;2023-04-25T07:45:57;5.00;;;2.70;;
36817;SDS011;22761;51.542;16.450;2023-04-25T07:48:27;5.90;;;2.90;;
36817;SDS011;22761;51.542;16.450;2023-04-25T07:50:56;6.30;;;2.90;;
36817;SDS011;22761;51.542;16.450;2023-04-25T07:53:23;4.20;;;2.50;;
36817;SDS011;22761;51.542;16.450;2023-04-25T07:55:54;6.30;;;3.40;;
36817;SDS011;22761;51.542;16.450;2023-04-25T07:58:23;4.60;;;3.00;;
36817;SDS011;22761;51.542;16.450;2023-04-25T08:00:55;6.50;;;2.90;;
36817;SDS011;22761;51.542;16.450;2023-04-25T08:03:32;6.10;;;2.70;;
36817;SDS011;22761;51.542;16.450;2023-04-25T08:06:01;6.00;;;2.80;;
36817;SDS011;22761;51.542;16.450;2023-04-25T08:08:36;6.60;;;2.80;;
36817;SDS011;22761;51.542;16.450;2023-04-25T08:11:06;7.40;;;2.90;;
36817;SDS011;22761;51.542;16.450;2023-04-25T08:13:34;6.10;;;2.80;;
36817;SDS011;22761;51.542;16.450;2023-04-25T08:16:04;4.90;;;2.40;;
36817;SDS011;22761;51.542;16.450;2023-04-25T08:18:32;3.90;;;2.40;;
36817;SDS011;22761;51.542;16.450;2023-04-25T08:21:02;5.40;;;3.10;;
36817;SDS011;22761;51.542;16.450;2023-04-25T08:23:31;6.90;;;3.30;;
36817;SDS011;22761;51.542;16.450;2023-04-25T08:26:03;8.70;;;2.80;;
36817;SDS011;22761;51.542;16.450;2023-04-25T08:28:34;7.50;;;3.20;;
36817;SDS011;22761;51.542;16.450;2023-04-25T08:31:03;5.00;;;3.00;;
36817;SDS011;22761;51.542;16.450;2023-04-25T08:33:39;5.80;;;2.50;;
36817;SDS011;22761;51.542;16.450;2023-04-25T08:36:28;4.80;;;2.90;;
36817;SDS011;22761;51.542;16.450;2023-04-25T08:38:59;5.50;;;2.70;;
36817;SDS011;22761;51.542;16.450;2023-04-25T08:41:28;3.90;;;2.80;;
36817;SDS011;22761;51.542;16.450;2023-04-25T08:43:57;6.00;;;2.80;;
36817;SDS011;22761;51.542;16.450;2023-04-25T08:46:28;5.60;;;2.90;;
36817;SDS011;22761;51.542;16.450;2023-04-25T08:49:17;7.80;;;3.10;;
36817;SDS011;22761;51.542;16.450;2023-04-25T08:51:46;6.80;;;3.00;;
36817;SDS011;22761;51.542;16.450;2023-04-25T08:54:15;6.00;;;2.90;;
36817;SDS011;22761;51.542;16.450;2023-04-25T08:57:02;5.50;;;2.00;;
36817;SDS011;22761;51.542;16.450;2023-04-25T08:59:32;5.60;;;2.00;;
36817;SDS011;22761;51.542;16.450;2023-04-25T09:02:02;4.30;;;1.90;;
36817;SDS011;22761;51.542;16.450;2023-04-25T09:04:31;2.60;;;1.30;;
36817;SDS011;22761;51.542;16.450;2023-04-25T09:07:00;3.80;;;1.80;;
36817;SDS011;22761;51.542;16.450;2023-04-25T09:09:29;5.40;;;1.80;;
36817;SDS011;22761;51.542;16.450;2023-04-25T09:11:57;4.00;;;1.50;;
36817;SDS011;22761;51.542;16.450;2023-04-25T09:14:28;4.70;;;1.40;;
36817;SDS011;22761;51.542;16.450;2023-04-25T09:17:19;5.30;;;2.20;;
36817;SDS011;22761;51.542;16.450;2023-04-25T09:19:51;4.80;;;1.70;;
36817;SDS011;22761;51.542;16.450;2023-04-25T09:22:26;3.90;;;1.40;;
36817;SDS011;22761;51.542;16.450;2023-04-25T09:24:54;3.10;;;1.40;;
36817;SDS011;22761;51.542;16.450;2023-04-25T09:27:26;2.30;;;1.50;;
36817;SDS011;22761;51.542;16.450;2023-04-25T09:30:15;3.10;;;1.40;;
36817;SDS011;22761;51.542;16.450;2023-04-25T09:33:08;3.80;;;1.70;;
36817;SDS011;22761;51.542;16.450;2023-04-25T09:35:42;2.40;;;1.70;;
36817;SDS011;22761;51.542;16.450;2023-04-25T09:38:18;2.90;;;1.50;;
36817;SDS011;22761;51.542;16.450;2023-04-25T09:41:02;2.60;;;1.30;;
36817;SDS011;22761;51.542;16.450;2023-04-25T09:43:45;2.20;;;1.40;;
36817;SDS011;22761;51.542;16.450;2023-04-25T09:46:15;2.40;;;1.40;;
36817;SDS011;22761;51.542;16.450;2023-04-25T09:48:49;1.90;;;1.00;;
36817;SDS011;22761;51.542;16.450;2023-04-25T09:51:25;1.70;;;0.90;;
36817;SDS011;22761;51.542;16.450;2023-04-25T09:53:54;3.30;;;1.00;;
36817;SDS011;22761;51.542;16.450;2023-04-25T09:56:29;2.20;;;1.40;;
36817;SDS011;22761;51.542;16.450;2023-04-25T09:59:05;1.90;;;1.10;;
36817;SDS011;22761;51.542;16.450;2023-04-25T10:01:35;2.70;;;1.30;;
36817;SDS011;22761;51.542;16.450;2023-04-25T10:04:10;3.30;;;1.40;;
36817;SDS011;22761;51.542;16.450;2023-04-25T10:07:12;3.30;;;1.60;;
36817;SDS011;22761;51.542;16.450;2023-04-25T10:09:45;4.10;;;1.20;;
36817;SDS011;22761;51.542;16.450;2023-04-25T10:12:16;2.80;;;1.10;;
36817;SDS011;22761;51.542;16.450;2023-04-25T10:14:44;2.90;;;1.30;;
36817;SDS011;22761;51.542;16.450;2023-04-25T10:17:13;2.10;;;1.20;;
36817;SDS011;22761;51.542;16.450;2023-04-25T10:19:42;1.60;;;1.10;;
36817;SDS011;22761;51.542;16.450;2023-04-25T10:24:41;3.60;;;1.40;;
36817;SDS011;22761;51.542;16.450;2023-04-25T10:27:09;1.90;;;1.10;;
36817;SDS011;22761;51.542;16.450;2023-04-25T10:29:39;1.70;;;1.00;;
36817;SDS011;22761;51.542;16.450;2023-04-25T10:32:11;2.20;;;1.20;;
36817;SDS011;22761;51.542;16.450;2023-04-25T10:34:43;2.30;;;1.00;;
36817;SDS011;22761;51.542;16.450;2023-04-25T10:37:14;2.00;;;0.90;;
36817;SDS011;22761;51.542;16.450;2023-04-25T10:39:43;2.20;;;1.00;;
36817;SDS011;22761;51.542;16.450;2023-04-25T10:42:11;2.80;;;1.10;;
36817;SDS011;22761;51.542;16.450;2023-04-25T10:44:39;1.90;;;1.00;;
36817;SDS011;22761;51.542;16.450;2023-04-25T10:47:08;2.20;;;0.90;;
36817;SDS011;22761;51.542;16.450;2023-04-25T10:49:38;2.40;;;1.10;;
36817;SDS011;22761;51.542;16.450;2023-04-25T10:52:14;1.80;;;0.90;;
36817;SDS011;22761;51.542;16.450;2023-04-25T11:00:05;2.60;;;1.30;;
36817;SDS011;22761;51.542;16.450;2023-04-25T11:02:37;2.90;;;1.20;;
36817;SDS011;22761;51.542;16.450;2023-04-25T11:05:06;4.30;;;1.30;;
36817;SDS011;22761;51.542;16.450;2023-04-25T11:07:48;4.60;;;1.20;;
36817;SDS011;22761;51.542;16.450;2023-04-25T11:10:34;1.80;;;1.00;;
36817;SDS011;22761;51.542;16.450;2023-04-25T11:13:05;2.30;;;1.00;;
36817;SDS011;22761;51.542;16.450;2023-04-25T11:15:33;5.30;;;2.90;;
36817;SDS011;22761;51.542;16.450;2023-04-25T11:18:01;3.40;;;1.70;;
36817;SDS011;22761;51.542;16.450;2023-04-25T11:20:31;2.70;;;1.10;;
36817;SDS011;22761;51.542;16.450;2023-04-25T11:22:59;1.90;;;0.80;;
36817;SDS011;22761;51.542;16.450;2023-04-25T11:25:28;3.30;;;1.30;;
36817;SDS011;22761;51.542;16.450;2023-04-25T11:27:58;4.80;;;1.10;;
36817;SDS011;22761;51.542;16.450;2023-04-25T11:30:27;3.50;;;1.20;;
36817;SDS011;22761;51.542;16.450;2023-04-25T11:32:58;1.50;;;0.90;;
36817;SDS011;22761;51.542;16.450;2023-04-25T11:35:27;3.00;;;1.20;;
36817;SDS011;22761;51.542;16.450;2023-04-25T11:37:55;2.00;;;1.00;;
36817;SDS011;22761;51.542;16.450;2023-04-25T11:40:23;3.10;;;1.20;;
36817;SDS011;22761;51.542;16.450;2023-04-25T11:42:51;1.90;;;1.10;;
36817;SDS011;22761;51.542;16.450;2023-04-25T11:47:50;2.70;;;1.30;;
36817;SDS011;22761;51.542;16.450;2023-04-25T11:50:19;2.70;;;1.20;;
36817;SDS011;22761;51.542;16.450;2023-04-25T11:52:47;2.80;;;1.20;;
36817;SDS011;22761;51.542;16.450;2023-04-25T11:55:17;3.80;;;1.20;;
36817;SDS011;22761;51.542;16.450;2023-04-25T11:57:47;3.10;;;1.50;;
36817;SDS011;22761;51.542;16.450;2023-04-25T12:00:18;4.80;;;1.50;;
36817;SDS011;22761;51.542;16.450;2023-04-25T12:02:51;3.30;;;1.70;;
36817;SDS011;22761;51.542;16.450;2023-04-25T12:05:25;4.50;;;1.20;;
36817;SDS011;22761;51.542;16.450;2023-04-25T12:08:09;3.50;;;1.10;;
36817;SDS011;22761;51.542;16.450;2023-04-25T12:10:39;2.10;;;1.10;;
36817;SDS011;22761;51.542;16.450;2023-04-25T12:13:21;2.90;;;1.30;;
36817;SDS011;22761;51.542;16.450;2023-04-25T12:15:51;1.60;;;1.10;;
36817;SDS011;22761;51.542;16.450;2023-04-25T12:18:20;2.70;;;1.30;;
36817;SDS011;22761;51.542;16.450;2023-04-25T12:20:52;1.70;;;1.30;;
36817;SDS011;22761;51.542;16.450;2023-04-25T12:23:26;2.80;;;1.20;;
36817;SDS011;22761;51.542;16.450;2023-04-25T12:25:56;2.90;;;1.40;;
36817;SDS011;22761;51.542;16.450;2023-04-25T12:28:25;2.70;;;1.30;;
36817;SDS011;22761;51.542;16.450;2023-04-25T12:31:02;1.80;;;1.10;;
36817;SDS011;22761;51.542;16.450;2023-04-25T12:33:33;2.30;;;1.40;;
36817;SDS011;22761;51.542;16.450;2023-04-25T12:36:03;3.60;;;1.50;;
36817;SDS011;22761;51.542;16.450;2023-04-25T12:38:37;5.40;;;1.50;;
36817;SDS011;22761;51.542;16.450;2023-04-25T12:41:06;2.40;;;1.60;;
36817;SDS011;22761;51.542;16.450;2023-04-25T12:43:35;3.60;;;1.40;;
36817;SDS011;22761;51.542;16.450;2023-04-25T12:46:03;2.80;;;1.50;;
36817;SDS011;22761;51.542;16.450;2023-04-25T12:48:32;2.50;;;1.40;;
36817;SDS011;22761;51.542;16.450;2023-04-25T12:51:00;2.50;;;1.50;;
36817;SDS011;22761;51.542;16.450;2023-04-25T12:53:28;2.90;;;1.60;;
36817;SDS011;22761;51.542;16.450;2023-04-25T12:55:57;2.90;;;1.50;;
36817;SDS011;22761;51.542;16.450;2023-04-25T12:58:25;4.20;;;1.80;;
36817;SDS011;22761;51.542;16.450;2023-04-25T13:00:53;3.60;;;1.80;;
36817;SDS011;22761;51.542;16.450;2023-04-25T13:03:22;4.90;;;1.80;;
36817;SDS011;22761;51.542;16.450;2023-04-25T13:05:50;3.00;;;1.70;;
36817;SDS011;22761;51.542;16.450;2023-04-25T13:08:20;2.80;;;1.40;;
36817;SDS011;22761;51.542;16.450;2023-04-25T13:10:48;4.60;;;1.90;;
36817;SDS011;22761;51.542;16.450;2023-04-25T13:13:16;4.70;;;2.10;;
36817;SDS011;22761;51.542;16.450;2023-04-25T13:15:44;4.70;;;1.80;;
36817;SDS011;22761;51.542;16.450;2023-04-25T13:18:14;2.00;;;1.60;;
36817;SDS011;22761;51.542;16.450;2023-04-25T13:20:43;1.80;;;1.30;;
36817;SDS011;22761;51.542;16.450;2023-04-25T13:23:12;4.80;;;1.50;;
36817;SDS011;22761;51.542;16.450;2023-04-25T13:25:40;3.80;;;2.00;;
36817;SDS011;22761;51.542;16.450;2023-04-25T13:28:08;8.00;;;5.30;;
36817;SDS011;22761;51.542;16.450;2023-04-25T13:30:36;5.20;;;3.00;;
36817;SDS011;22761;51.542;16.450;2023-04-25T13:33:04;6.00;;;3.40;;
36817;SDS011;22761;51.542;16.450;2023-04-25T13:35:35;5.80;;;3.60;;
36817;SDS011;22761;51.542;16.450;2023-04-25T13:38:03;8.50;;;6.40;;
36817;SDS011;22761;51.542;16.450;2023-04-25T13:40:32;7.70;;;5.60;;
36817;SDS011;22761;51.542;16.450;2023-04-25T13:43:01;4.30;;;2.60;;
36817;SDS011;22761;51.542;16.450;2023-04-25T13:45:29;4.70;;;2.40;;
36817;SDS011;22761;51.542;16.450;2023-04-25T13:48:00;4.40;;;2.40;;
36817;SDS011;22761;51.542;16.450;2023-04-25T13:50:28;6.20;;;3.00;;
36817;SDS011;22761;51.542;16.450;2023-04-25T13:52:56;4.70;;;1.90;;
36817;SDS011;22761;51.542;16.450;2023-04-25T13:55:25;4.00;;;2.10;;
36817;SDS011;22761;51.542;16.450;2023-04-25T13:57:53;3.40;;;2.50;;
36817;SDS011;22761;51.542;16.450;2023-04-25T14:00:22;3.80;;;2.30;;
36817;SDS011;22761;51.542;16.450;2023-04-25T14:02:50;4.20;;;2.40;;
36817;SDS011;22761;51.542;16.450;2023-04-25T14:05:19;4.70;;;2.70;;
36817;SDS011;22761;51.542;16.450;2023-04-25T14:07:47;3.30;;;2.00;;
36817;SDS011;22761;51.542;16.450;2023-04-25T14:10:15;3.70;;;2.70;;
36817;SDS011;22761;51.542;16.450;2023-04-25T14:12:43;4.00;;;2.50;;
36817;SDS011;22761;51.542;16.450;2023-04-25T14:15:12;9.80;;;2.70;;
36817;SDS011;22761;51.542;16.450;2023-04-25T14:17:40;4.20;;;3.10;;
36817;SDS011;22761;51.542;16.450;2023-04-25T14:20:08;6.10;;;3.00;;
36817;SDS011;22761;51.542;16.450;2023-04-25T14:22:36;2.80;;;2.30;;
36817;SDS011;22761;51.542;16.450;2023-04-25T14:25:09;2.90;;;2.00;;
36817;SDS011;22761;51.542;16.450;2023-04-25T14:27:37;6.70;;;1.60;;
36817;SDS011;22761;51.542;16.450;2023-04-25T14:30:06;6.80;;;2.30;;
36817;SDS011;22761;51.542;16.450;2023-04-25T14:32:36;2.20;;;1.80;;
36817;SDS011;22761;51.542;16.450;2023-04-25T14:35:05;3.90;;;1.80;;
36817;SDS011;22761;51.542;16.450;2023-04-25T14:37:34;4.30;;;2.60;;
36817;SDS011;22761;51.542;16.450;2023-04-25T14:40:03;3.90;;;2.50;;
36817;SDS011;22761;51.542;16.450;2023-04-25T14:42:33;4.50;;;2.60;;
36817;SDS011;22761;51.542;16.450;2023-04-25T14:45:05;5.10;;;3.30;;
36817;SDS011;22761;51.542;16.450;2023-04-25T14:47:37;3.80;;;2.10;;
36817;SDS011;22761;51.542;16.450;2023-04-25T14:50:06;4.90;;;3.30;;
36817;SDS011;22761;51.542;16.450;2023-04-25T14:52:35;5.00;;;2.40;;
36817;SDS011;22761;51.542;16.450;2023-04-25T14:55:03;4.20;;;1.80;;
36817;SDS011;22761;51.542;16.450;2023-04-25T14:57:35;3.70;;;2.00;;
36817;SDS011;22761;51.542;16.450;2023-04-25T15:00:03;4.70;;;2.00;;
36817;SDS011;22761;51.542;16.450;2023-04-25T15:02:35;5.00;;;2.40;;
36817;SDS011;22761;51.542;16.450;2023-04-25T15:05:04;5.20;;;3.40;;
36817;SDS011;22761;51.542;16.450;2023-04-25T15:07:33;6.70;;;3.80;;
36817;SDS011;22761;51.542;16.450;2023-04-25T15:10:02;7.70;;;4.70;;
36817;SDS011;22761;51.542;16.450;2023-04-25T15:12:30;5.30;;;3.40;;
36817;SDS011;22761;51.542;16.450;2023-04-25T15:14:59;9.30;;;4.40;;